sensor_id;sensor_type;location;lat;lon;timestamp;pressure;altitude;pressure_sealevel;temperature;humidity
76868;BME280;66168;45.478;11.060;2023-05-15T00:02:18;100183.02;;;13.12;79.16
76868;BME280;66168;45.478;11.060;2023-05-15T00:04:45;100182.48;;;13.14;79.03
76868;BME280;66168;45.478;11.060;2023-05-15T00:07:12;100174.34;;;13.17;78.92
76868;BME280;66168;45.478;11.060;2023-05-15T00:09:38;100171.64;;;13.18;78.66
76868;BME280;66168;45.478;11.060;2023-05-15T00:12:05;100166.55;;;13.19;78.75
76868;BME280;66168;45.478;11.060;2023-05-15T00:14:32;100154.80;;;13.19;78.59
76868;BME280;66168;45.478;11.060;2023-05-15T00:16:59;100151.34;;;13.21;78.62
76868;BME280;66168;45.478;11.060;2023-05-15T00:19:26;100146.55;;;13.23;78.63
76868;BME280;66168;45.478;11.060;2023-05-15T00:21:52;100145.35;;;13.25;78.64
76868;BME280;66168;45.478;11.060;2023-05-15T00:24:20;100143.70;;;13.26;78.61
76868;BME280;66168;45.478;11.060;2023-05-15T00:26:47;100144.00;;;13.29;78.48
76868;BME280;66168;45.478;11.060;2023-05-15T00:29:13;100139.80;;;13.22;78.60
76868;BME280;66168;45.478;11.060;2023-05-15T00:31:40;100142.68;;;13.07;78.75
76868;BME280;66168;45.478;11.060;2023-05-15T00:34:07;100143.03;;;12.98;78.76
76868;BME280;66168;45.478;11.060;2023-05-15T00:36:33;100140.47;;;12.89;78.79
76868;BME280;66168;45.478;11.060;2023-05-15T00:39:01;100141.77;;;12.82;78.93
76868;BME280;66168;45.478;11.060;2023-05-15T00:41:29;100141.03;;;12.76;79.01
76868;BME280;66168;45.478;11.060;2023-05-15T00:43:59;100145.92;;;12.68;79.17
76868;BME280;66168;45.478;11.060;2023-05-15T00:46:27;100143.63;;;12.57;79.39
76868;BME280;66168;45.478;11.060;2023-05-15T00:48:56;100143.96;;;12.53;79.60
76868;BME280;66168;45.478;11.060;2023-05-15T00:51:25;100142.80;;;12.53;79.77
76868;BME280;66168;45.478;11.060;2023-05-15T00:53:52;100141.33;;;12.54;79.60
76868;BME280;66168;45.478;11.060;2023-05-15T00:56:19;100140.33;;;12.58;79.59
76868;BME280;66168;45.478;11.060;2023-05-15T00:58:48;100137.20;;;12.62;79.56
76868;BME280;66168;45.478;11.060;2023-05-15T01:01:17;100132.75;;;12.65;79.52
76868;BME280;66168;45.478;11.060;2023-05-15T01:03:44;100137.52;;;12.68;79.57
76868;BME280;66168;45.478;11.060;2023-05-15T01:06:11;100137.10;;;12.72;79.48
76868;BME280;66168;45.478;11.060;2023-05-15T01:08:45;100136.88;;;12.75;79.28
76868;BME280;66168;45.478;11.060;2023-05-15T01:11:13;100130.56;;;12.77;79.34
76868;BME280;66168;45.478;11.060;2023-05-15T01:13:40;100134.67;;;12.79;79.13
76868;BME280;66168;45.478;11.060;2023-05-15T01:16:08;100132.61;;;12.80;79.00
76868;BME280;66168;45.478;11.060;2023-05-15T01:18:35;100134.23;;;12.80;78.90
76868;BME280;66168;45.478;11.060;2023-05-15T01:27:06;100135.21;;;12.81;78.62
76868;BME280;66168;45.478;11.060;2023-05-15T01:35:11;100134.59;;;12.77;78.54
76868;BME280;66168;45.478;11.060;2023-05-15T01:37:44;100130.02;;;12.78;78.48
76868;BME280;66168;45.478;11.060;2023-05-15T01:40:17;100127.11;;;12.79;78.47
76868;BME280;66168;45.478;11.060;2023-05-15T01:42:52;100124.48;;;12.81;78.41
76868;BME280;66168;45.478;11.060;2023-05-15T01:45:23;100121.95;;;12.84;78.45
76868;BME280;66168;45.478;11.060;2023-05-15T01:47:53;100121.10;;;12.87;78.52
76868;BME280;66168;45.478;11.060;2023-05-15T01:50:20;100122.23;;;12.89;78.55
76868;BME280;66168;45.478;11.060;2023-05-15T01:52:50;100119.81;;;12.85;78.47
76868;BME280;66168;45.478;11.060;2023-05-15T01:55:19;100121.62;;;12.85;78.31
76868;BME280;66168;45.478;11.060;2023-05-15T01:57:49;100117.31;;;12.83;78.29
76868;BME280;66168;45.478;11.060;2023-05-15T02:00:17;100120.59;;;12.82;78.18
76868;BME280;66168;45.478;11.060;2023-05-15T02:02:45;100126.46;;;12.82;78.10
76868;BME280;66168;45.478;11.060;2023-05-15T02:05:13;100127.23;;;12.80;78.13
76868;BME280;66168;45.478;11.060;2023-05-15T02:07:41;100126.72;;;12.71;78.28
76868;BME280;66168;45.478;11.060;2023-05-15T02:10:12;100124.83;;;12.53;78.67
76868;BME280;66168;45.478;11.060;2023-05-15T02:12:44;100129.89;;;12.40;78.85
76868;BME280;66168;45.478;11.060;2023-05-15T02:15:12;100132.82;;;12.37;78.95
76868;BME280;66168;45.478;11.060;2023-05-15T02:17:41;100132.86;;;12.35;78.95
76868;BME280;66168;45.478;11.060;2023-05-15T02:20:08;100132.70;;;12.38;78.99
76868;BME280;66168;45.478;11.060;2023-05-15T02:22:36;100134.06;;;12.40;79.06
76868;BME280;66168;45.478;11.060;2023-05-15T02:25:03;100130.54;;;12.41;79.00
76868;BME280;66168;45.478;11.060;2023-05-15T02:27:59;100132.27;;;12.34;79.16
76868;BME280;66168;45.478;11.060;2023-05-15T02:33:34;100131.68;;;12.28;79.47
76868;BME280;66168;45.478;11.060;2023-05-15T02:36:08;100127.68;;;12.32;79.50
76868;BME280;66168;45.478;11.060;2023-05-15T02:38:43;100125.67;;;12.35;79.39
76868;BME280;66168;45.478;11.060;2023-05-15T02:41:12;100120.77;;;12.37;79.25
76868;BME280;66168;45.478;11.060;2023-05-15T02:43:39;100120.30;;;12.36;79.12
76868;BME280;66168;45.478;11.060;2023-05-15T02:46:09;100115.45;;;12.36;79.20
76868;BME280;66168;45.478;11.060;2023-05-15T02:48:39;100115.71;;;12.39;79.14
76868;BME280;66168;45.478;11.060;2023-05-15T02:51:07;100113.77;;;12.41;79.10
76868;BME280;66168;45.478;11.060;2023-05-15T02:53:38;100116.02;;;12.44;79.16
76868;BME280;66168;45.478;11.060;2023-05-15T02:56:06;100115.95;;;12.46;79.05
76868;BME280;66168;45.478;11.060;2023-05-15T02:58:33;100114.52;;;12.48;78.96
76868;BME280;66168;45.478;11.060;2023-05-15T03:01:00;100113.34;;;12.48;78.95
76868;BME280;66168;45.478;11.060;2023-05-15T03:03:27;100113.34;;;12.48;78.77
76868;BME280;66168;45.478;11.060;2023-05-15T03:05:54;100111.05;;;12.48;78.69
76868;BME280;66168;45.478;11.060;2023-05-15T03:08:20;100109.60;;;12.49;78.82
76868;BME280;66168;45.478;11.060;2023-05-15T03:10:47;100109.52;;;12.49;78.84
76868;BME280;66168;45.478;11.060;2023-05-15T03:13:14;100107.30;;;12.50;78.71
76868;BME280;66168;45.478;11.060;2023-05-15T03:15:43;100109.19;;;12.50;78.81
76868;BME280;66168;45.478;11.060;2023-05-15T03:18:10;100110.75;;;12.49;78.68
76868;BME280;66168;45.478;11.060;2023-05-15T03:20:37;100108.37;;;12.50;78.55
76868;BME280;66168;45.478;11.060;2023-05-15T03:23:04;100111.05;;;12.51;78.58
76868;BME280;66168;45.478;11.060;2023-05-15T03:25:31;100109.28;;;12.51;78.51
76868;BME280;66168;45.478;11.060;2023-05-15T03:27:57;100111.30;;;12.52;78.66
76868;BME280;66168;45.478;11.060;2023-05-15T03:30:24;100109.83;;;12.52;78.63
76868;BME280;66168;45.478;11.060;2023-05-15T03:32:51;100109.39;;;12.52;78.46
76868;BME280;66168;45.478;11.060;2023-05-15T03:35:18;100109.68;;;12.52;78.53
76868;BME280;66168;45.478;11.060;2023-05-15T03:37:44;100115.56;;;12.50;78.29
76868;BME280;66168;45.478;11.060;2023-05-15T03:40:12;100113.83;;;12.47;78.25
76868;BME280;66168;45.478;11.060;2023-05-15T03:42:39;100116.97;;;12.45;78.15
76868;BME280;66168;45.478;11.060;2023-05-15T03:45:06;100118.00;;;12.43;78.25
76868;BME280;66168;45.478;11.060;2023-05-15T03:47:33;100114.28;;;12.39;78.23
76868;BME280;66168;45.478;11.060;2023-05-15T03:50:00;100113.58;;;12.37;78.37
76868;BME280;66168;45.478;11.060;2023-05-15T03:52:26;100113.13;;;12.37;78.44
76868;BME280;66168;45.478;11.060;2023-05-15T03:54:53;100114.27;;;12.36;78.41
76868;BME280;66168;45.478;11.060;2023-05-15T03:57:20;100115.64;;;12.35;78.40
76868;BME280;66168;45.478;11.060;2023-05-15T03:59:46;100116.41;;;12.35;78.21
76868;BME280;66168;45.478;11.060;2023-05-15T04:02:13;100118.08;;;12.34;78.29
76868;BME280;66168;45.478;11.060;2023-05-15T04:04:40;100116.82;;;12.34;78.22
76868;BME280;66168;45.478;11.060;2023-05-15T04:07:07;100117.80;;;12.35;78.20
76868;BME280;66168;45.478;11.060;2023-05-15T04:09:33;100114.85;;;12.36;78.28
76868;BME280;66168;45.478;11.060;2023-05-15T04:12:00;100116.32;;;12.37;78.17
76868;BME280;66168;45.478;11.060;2023-05-15T04:14:27;100115.35;;;12.36;78.26
76868;BME280;66168;45.478;11.060;2023-05-15T04:16:53;100114.23;;;12.36;78.22
76868;BME280;66168;45.478;11.060;2023-05-15T04:19:20;100116.77;;;12.35;78.17
76868;BME280;66168;45.478;11.060;2023-05-15T04:21:47;100119.20;;;12.35;78.10
76868;BME280;66168;45.478;11.060;2023-05-15T04:24:13;100117.98;;;12.35;78.09
76868;BME280;66168;45.478;11.060;2023-05-15T04:26:40;100122.28;;;12.36;78.06
76868;BME280;66168;45.478;11.060;2023-05-15T04:29:07;100121.94;;;12.37;78.12
76868;BME280;66168;45.478;11.060;2023-05-15T04:31:34;100121.14;;;12.39;78.16
76868;BME280;66168;45.478;11.060;2023-05-15T04:34:01;100126.20;;;12.43;78.23
76868;BME280;66168;45.478;11.060;2023-05-15T04:36:30;100130.67;;;12.46;78.07
76868;BME280;66168;45.478;11.060;2023-05-15T04:38:57;100130.84;;;12.47;78.13
76868;BME280;66168;45.478;11.060;2023-05-15T04:41:24;100131.30;;;12.47;77.83
76868;BME280;66168;45.478;11.060;2023-05-15T04:43:52;100133.73;;;12.49;77.83
76868;BME280;66168;45.478;11.060;2023-05-15T04:46:18;100139.15;;;12.51;77.94
76868;BME280;66168;45.478;11.060;2023-05-15T04:48:45;100137.89;;;12.51;77.95
76868;BME280;66168;45.478;11.060;2023-05-15T04:51:11;100138.91;;;12.51;78.04
76868;BME280;66168;45.478;11.060;2023-05-15T04:53:38;100137.39;;;12.53;78.09
76868;BME280;66168;45.478;11.060;2023-05-15T04:56:05;100131.02;;;12.56;77.92
76868;BME280;66168;45.478;11.060;2023-05-15T04:58:32;100134.41;;;12.57;77.84
76868;BME280;66168;45.478;11.060;2023-05-15T05:00:58;100133.30;;;12.60;77.84
76868;BME280;66168;45.478;11.060;2023-05-15T05:03:29;100129.20;;;12.64;77.76
76868;BME280;66168;45.478;11.060;2023-05-15T05:05:56;100130.47;;;12.70;77.88
76868;BME280;66168;45.478;11.060;2023-05-15T05:08:22;100129.33;;;12.77;77.90
76868;BME280;66168;45.478;11.060;2023-05-15T05:10:54;100127.41;;;12.84;77.80
76868;BME280;66168;45.478;11.060;2023-05-15T05:13:21;100131.98;;;12.92;77.87
76868;BME280;66168;45.478;11.060;2023-05-15T05:15:48;100132.55;;;12.96;77.56
76868;BME280;66168;45.478;11.060;2023-05-15T05:18:15;100129.89;;;13.02;77.59
76868;BME280;66168;45.478;11.060;2023-05-15T05:20:41;100130.58;;;13.08;77.50
76868;BME280;66168;45.478;11.060;2023-05-15T05:23:08;100131.70;;;13.15;77.38
76868;BME280;66168;45.478;11.060;2023-05-15T05:25:35;100132.53;;;13.23;77.34
76868;BME280;66168;45.478;11.060;2023-05-15T05:28:01;100135.23;;;13.28;77.32
76868;BME280;66168;45.478;11.060;2023-05-15T05:30:28;100136.77;;;13.31;77.31
76868;BME280;66168;45.478;11.060;2023-05-15T05:32:54;100137.21;;;13.37;77.32
76868;BME280;66168;45.478;11.060;2023-05-15T05:35:21;100134.54;;;13.42;77.31
76868;BME280;66168;45.478;11.060;2023-05-15T05:37:48;100132.20;;;13.48;77.19
76868;BME280;66168;45.478;11.060;2023-05-15T05:40:15;100133.26;;;13.54;77.15
76868;BME280;66168;45.478;11.060;2023-05-15T05:42:43;100133.62;;;13.63;76.98
76868;BME280;66168;45.478;11.060;2023-05-15T05:45:10;100133.89;;;13.70;76.80
76868;BME280;66168;45.478;11.060;2023-05-15T05:47:36;100133.96;;;13.77;76.96
76868;BME280;66168;45.478;11.060;2023-05-15T05:50:04;100136.87;;;13.82;76.68
76868;BME280;66168;45.478;11.060;2023-05-15T05:52:31;100138.11;;;13.83;76.53
76868;BME280;66168;45.478;11.060;2023-05-15T05:54:58;100137.29;;;13.77;76.38
76868;BME280;66168;45.478;11.060;2023-05-15T05:57:25;100132.08;;;13.75;76.43
76868;BME280;66168;45.478;11.060;2023-05-15T05:59:52;100128.79;;;13.78;76.34
76868;BME280;66168;45.478;11.060;2023-05-15T06:02:21;100127.27;;;13.89;76.25
76868;BME280;66168;45.478;11.060;2023-05-15T06:04:49;100126.73;;;14.06;76.52
76868;BME280;66168;45.478;11.060;2023-05-15T06:07:16;100125.55;;;14.24;76.48
76868;BME280;66168;45.478;11.060;2023-05-15T06:09:43;100124.96;;;14.44;76.26
76868;BME280;66168;45.478;11.060;2023-05-15T06:12:11;100124.31;;;14.59;76.11
76868;BME280;66168;45.478;11.060;2023-05-15T06:14:38;100126.08;;;14.73;75.55
76868;BME280;66168;45.478;11.060;2023-05-15T06:17:04;100116.64;;;14.80;75.30
76868;BME280;66168;45.478;11.060;2023-05-15T06:19:32;100113.77;;;14.85;75.23
76868;BME280;66168;45.478;11.060;2023-05-15T06:21:58;100112.61;;;14.87;74.92
76868;BME280;66168;45.478;11.060;2023-05-15T06:24:25;100114.84;;;14.86;74.98
76868;BME280;66168;45.478;11.060;2023-05-15T06:26:52;100116.86;;;14.79;75.24
76868;BME280;66168;45.478;11.060;2023-05-15T06:29:19;100117.45;;;14.77;75.47
76868;BME280;66168;45.478;11.060;2023-05-15T06:31:46;100118.72;;;14.77;75.65
76868;BME280;66168;45.478;11.060;2023-05-15T06:34:12;100126.02;;;14.75;75.82
76868;BME280;66168;45.478;11.060;2023-05-15T06:36:39;100124.90;;;14.90;76.14
76868;BME280;66168;45.478;11.060;2023-05-15T06:39:06;100123.44;;;15.06;75.91
76868;BME280;66168;45.478;11.060;2023-05-15T06:41:36;100123.20;;;15.25;75.44
76868;BME280;66168;45.478;11.060;2023-05-15T06:44:03;100119.60;;;15.42;75.41
76868;BME280;66168;45.478;11.060;2023-05-15T06:46:30;100116.02;;;15.63;74.98
76868;BME280;66168;45.478;11.060;2023-05-15T06:48:57;100110.41;;;15.73;74.49
76868;BME280;66168;45.478;11.060;2023-05-15T06:51:24;100106.48;;;15.79;74.42
76868;BME280;66168;45.478;11.060;2023-05-15T06:53:50;100105.45;;;15.90;74.29
76868;BME280;66168;45.478;11.060;2023-05-15T06:56:17;100105.89;;;16.02;74.07
76868;BME280;66168;45.478;11.060;2023-05-15T06:58:44;100104.05;;;16.11;73.63
76868;BME280;66168;45.478;11.060;2023-05-15T07:01:11;100106.44;;;16.25;72.79
76868;BME280;66168;45.478;11.060;2023-05-15T07:03:37;100107.38;;;16.38;72.76
76868;BME280;66168;45.478;11.060;2023-05-15T07:06:05;100107.48;;;16.60;72.14
76868;BME280;66168;45.478;11.060;2023-05-15T07:08:31;100116.92;;;16.71;71.52
76868;BME280;66168;45.478;11.060;2023-05-15T07:10:58;100117.55;;;16.90;71.85
76868;BME280;66168;45.478;11.060;2023-05-15T07:13:25;100115.90;;;17.11;71.98
76868;BME280;66168;45.478;11.060;2023-05-15T07:15:52;100111.69;;;17.30;71.49
76868;BME280;66168;45.478;11.060;2023-05-15T07:18:18;100109.55;;;17.49;71.27
76868;BME280;66168;45.478;11.060;2023-05-15T07:20:45;100111.29;;;17.74;70.95
76868;BME280;66168;45.478;11.060;2023-05-15T07:23:12;100107.38;;;17.97;70.59
76868;BME280;66168;45.478;11.060;2023-05-15T07:25:39;100104.60;;;18.13;70.72
76868;BME280;66168;45.478;11.060;2023-05-15T07:28:06;100100.83;;;18.32;69.67
76868;BME280;66168;45.478;11.060;2023-05-15T07:30:33;100095.53;;;18.39;69.69
76868;BME280;66168;45.478;11.060;2023-05-15T07:32:59;100097.10;;;18.48;69.33
76868;BME280;66168;45.478;11.060;2023-05-15T07:35:26;100092.76;;;18.61;68.81
76868;BME280;66168;45.478;11.060;2023-05-15T07:37:53;100099.04;;;18.84;68.40
76868;BME280;66168;45.478;11.060;2023-05-15T07:40:20;100093.54;;;18.92;67.71
76868;BME280;66168;45.478;11.060;2023-05-15T07:42:47;100098.55;;;18.90;67.17
76868;BME280;66168;45.478;11.060;2023-05-15T07:45:13;100099.25;;;18.99;67.54
76868;BME280;66168;45.478;11.060;2023-05-15T07:47:44;100099.36;;;19.15;66.83
76868;BME280;66168;45.478;11.060;2023-05-15T07:50:12;100101.64;;;19.17;66.41
76868;BME280;66168;45.478;11.060;2023-05-15T07:52:39;100104.42;;;19.02;66.38
76868;BME280;66168;45.478;11.060;2023-05-15T07:55:10;100102.05;;;18.93;66.56
76868;BME280;66168;45.478;11.060;2023-05-15T07:57:37;100102.09;;;19.05;66.06
76868;BME280;66168;45.478;11.060;2023-05-15T08:00:08;100102.13;;;19.13;65.52
76868;BME280;66168;45.478;11.060;2023-05-15T08:02:39;100093.00;;;19.23;64.69
76868;BME280;66168;45.478;11.060;2023-05-15T08:05:06;100096.32;;;19.28;64.64
76868;BME280;66168;45.478;11.060;2023-05-15T08:07:34;100093.63;;;19.32;64.24
76868;BME280;66168;45.478;11.060;2023-05-15T08:10:01;100090.87;;;19.31;63.85
76868;BME280;66168;45.478;11.060;2023-05-15T08:12:29;100086.98;;;19.46;64.11
76868;BME280;66168;45.478;11.060;2023-05-15T08:14:56;100085.05;;;19.49;63.50
76868;BME280;66168;45.478;11.060;2023-05-15T08:17:23;100083.84;;;19.49;63.51
76868;BME280;66168;45.478;11.060;2023-05-15T08:19:51;100079.15;;;19.60;63.44
76868;BME280;66168;45.478;11.060;2023-05-15T08:22:18;100082.84;;;19.61;63.08
76868;BME280;66168;45.478;11.060;2023-05-15T08:24:45;100078.69;;;19.65;63.20
76868;BME280;66168;45.478;11.060;2023-05-15T08:27:12;100077.23;;;19.86;63.51
76868;BME280;66168;45.478;11.060;2023-05-15T08:29:39;100076.52;;;19.92;62.83
76868;BME280;66168;45.478;11.060;2023-05-15T08:32:07;100069.14;;;20.01;62.99
76868;BME280;66168;45.478;11.060;2023-05-15T08:34:34;100068.27;;;20.26;63.32
76868;BME280;66168;45.478;11.060;2023-05-15T08:37:00;100065.39;;;20.45;61.98
76868;BME280;66168;45.478;11.060;2023-05-15T08:39:27;100061.45;;;20.62;62.71
76868;BME280;66168;45.478;11.060;2023-05-15T08:41:59;100060.39;;;20.86;61.47
76868;BME280;66168;45.478;11.060;2023-05-15T08:44:29;100055.41;;;21.03;61.26
76868;BME280;66168;45.478;11.060;2023-05-15T08:46:56;100058.94;;;21.24;61.00
76868;BME280;66168;45.478;11.060;2023-05-15T08:49:46;100059.58;;;21.23;60.35
76868;BME280;66168;45.478;11.060;2023-05-15T08:52:16;100066.26;;;21.18;60.03
76868;BME280;66168;45.478;11.060;2023-05-15T08:54:43;100066.91;;;21.28;59.43
76868;BME280;66168;45.478;11.060;2023-05-15T08:57:13;100074.72;;;21.30;59.04
76868;BME280;66168;45.478;11.060;2023-05-15T08:59:40;100078.31;;;21.27;57.81
76868;BME280;66168;45.478;11.060;2023-05-15T09:02:07;100088.08;;;21.16;57.57
76868;BME280;66168;45.478;11.060;2023-05-15T09:04:35;100092.09;;;21.06;57.18
76868;BME280;66168;45.478;11.060;2023-05-15T09:07:02;100099.41;;;20.98;57.47
76868;BME280;66168;45.478;11.060;2023-05-15T09:09:31;100103.90;;;21.03;57.15
76868;BME280;66168;45.478;11.060;2023-05-15T09:11:59;100107.33;;;21.22;57.05
76868;BME280;66168;45.478;11.060;2023-05-15T09:14:27;100106.52;;;21.35;56.55
76868;BME280;66168;45.478;11.060;2023-05-15T09:16:54;100104.84;;;21.27;56.08
76868;BME280;66168;45.478;11.060;2023-05-15T09:19:21;100102.45;;;21.26;55.81
76868;BME280;66168;45.478;11.060;2023-05-15T09:21:48;100104.20;;;21.23;56.04
76868;BME280;66168;45.478;11.060;2023-05-15T09:24:23;100109.94;;;21.23;56.46
76868;BME280;66168;45.478;11.060;2023-05-15T09:27:04;100113.17;;;21.42;56.14
76868;BME280;66168;45.478;11.060;2023-05-15T09:29:33;100115.10;;;21.25;56.15
76868;BME280;66168;45.478;11.060;2023-05-15T09:32:02;100113.42;;;21.32;56.54
76868;BME280;66168;45.478;11.060;2023-05-15T09:34:31;100112.73;;;21.59;56.56
76868;BME280;66168;45.478;11.060;2023-05-15T09:37:00;100114.02;;;21.73;55.61
76868;BME280;66168;45.478;11.060;2023-05-15T09:39:27;100112.23;;;21.87;55.37
76868;BME280;66168;45.478;11.060;2023-05-15T09:42:07;100106.66;;;22.05;55.22
76868;BME280;66168;45.478;11.060;2023-05-15T09:44:35;100106.17;;;22.09;53.76
76868;BME280;66168;45.478;11.060;2023-05-15T09:47:05;100112.15;;;22.10;53.98
76868;BME280;66168;45.478;11.060;2023-05-15T09:49:33;100118.51;;;22.03;53.38
76868;BME280;66168;45.478;11.060;2023-05-15T09:52:01;100122.70;;;21.83;53.79
76868;BME280;66168;45.478;11.060;2023-05-15T09:54:30;100122.47;;;21.72;54.57
76868;BME280;66168;45.478;11.060;2023-05-15T09:57:06;100116.88;;;21.61;55.04
76868;BME280;66168;45.478;11.060;2023-05-15T09:59:33;100115.31;;;21.62;55.02
76868;BME280;66168;45.478;11.060;2023-05-15T10:02:00;100114.92;;;21.66;55.32
76868;BME280;66168;45.478;11.060;2023-05-15T10:04:33;100114.25;;;21.74;54.61
76868;BME280;66168;45.478;11.060;2023-05-15T10:07:01;100115.52;;;21.61;54.96
76868;BME280;66168;45.478;11.060;2023-05-15T10:09:31;100117.05;;;21.65;55.52
76868;BME280;66168;45.478;11.060;2023-05-15T10:11:58;100120.70;;;21.91;55.83
76868;BME280;66168;45.478;11.060;2023-05-15T10:14:25;100121.58;;;22.12;54.28
76868;BME280;66168;45.478;11.060;2023-05-15T10:16:54;100121.58;;;22.22;53.91
76868;BME280;66168;45.478;11.060;2023-05-15T10:19:23;100124.48;;;22.20;53.70
76868;BME280;66168;45.478;11.060;2023-05-15T10:21:52;100117.90;;;22.11;53.89
76868;BME280;66168;45.478;11.060;2023-05-15T10:24:20;100106.25;;;22.00;54.08
76868;BME280;66168;45.478;11.060;2023-05-15T10:26:48;100094.51;;;21.86;54.39
76868;BME280;66168;45.478;11.060;2023-05-15T10:29:17;100091.89;;;22.07;54.25
76868;BME280;66168;45.478;11.060;2023-05-15T10:31:47;100097.65;;;22.15;53.14
76868;BME280;66168;45.478;11.060;2023-05-15T10:34:15;100100.39;;;22.23;53.43
76868;BME280;66168;45.478;11.060;2023-05-15T10:36:42;100102.41;;;22.42;53.18
76868;BME280;66168;45.478;11.060;2023-05-15T10:39:10;100101.90;;;22.68;51.88
76868;BME280;66168;45.478;11.060;2023-05-15T10:41:38;100099.89;;;22.95;51.49
76868;BME280;66168;45.478;11.060;2023-05-15T10:44:05;100101.27;;;23.15;51.26
76868;BME280;66168;45.478;11.060;2023-05-15T10:46:34;100102.13;;;23.43;50.70
76868;BME280;66168;45.478;11.060;2023-05-15T10:49:01;100094.91;;;23.50;50.68
76868;BME280;66168;45.478;11.060;2023-05-15T10:51:29;100094.42;;;23.50;50.28
76868;BME280;66168;45.478;11.060;2023-05-15T10:53:59;100091.06;;;23.49;50.67
76868;BME280;66168;45.478;11.060;2023-05-15T10:56:29;100091.44;;;23.45;49.82
76868;BME280;66168;45.478;11.060;2023-05-15T10:58:56;100092.67;;;23.50;50.18
76868;BME280;66168;45.478;11.060;2023-05-15T11:01:28;100090.54;;;23.68;49.60
76868;BME280;66168;45.478;11.060;2023-05-15T11:04:13;100080.25;;;23.75;48.91
76868;BME280;66168;45.478;11.060;2023-05-15T11:06:45;100067.23;;;23.91;48.82
76868;BME280;66168;45.478;11.060;2023-05-15T11:09:33;100059.96;;;23.86;48.57
76868;BME280;66168;45.478;11.060;2023-05-15T11:12:01;100053.38;;;23.70;48.20
76868;BME280;66168;45.478;11.060;2023-05-15T11:14:30;100045.24;;;23.69;48.45
76868;BME280;66168;45.478;11.060;2023-05-15T11:16:58;100039.11;;;24.00;48.84
76868;BME280;66168;45.478;11.060;2023-05-15T11:19:54;100036.04;;;24.41;48.64
76868;BME280;66168;45.478;11.060;2023-05-15T11:22:33;100032.73;;;24.80;47.45
76868;BME280;66168;45.478;11.060;2023-05-15T11:25:07;100030.80;;;24.60;47.25
76868;BME280;66168;45.478;11.060;2023-05-15T11:27:39;100033.09;;;24.49;46.60
76868;BME280;66168;45.478;11.060;2023-05-15T11:30:08;100023.47;;;24.34;47.00
76868;BME280;66168;45.478;11.060;2023-05-15T11:37:47;100022.12;;;24.47;48.32
76868;BME280;66168;45.478;11.060;2023-05-15T11:40:26;100026.06;;;24.59;48.68
76868;BME280;66168;45.478;11.060;2023-05-15T11:43:01;100024.09;;;24.63;46.51
76868;BME280;66168;45.478;11.060;2023-05-15T11:45:31;100031.85;;;24.19;45.82
76868;BME280;66168;45.478;11.060;2023-05-15T11:47:59;100029.95;;;24.07;46.73
76868;BME280;66168;45.478;11.060;2023-05-15T11:50:29;100025.83;;;24.21;47.03
76868;BME280;66168;45.478;11.060;2023-05-15T11:53:00;100017.06;;;24.32;47.16
76868;BME280;66168;45.478;11.060;2023-05-15T11:55:28;100018.80;;;24.50;46.70
76868;BME280;66168;45.478;11.060;2023-05-15T11:57:56;100023.75;;;24.57;46.19
76868;BME280;66168;45.478;11.060;2023-05-15T12:00:23;100024.04;;;24.62;46.60
76868;BME280;66168;45.478;11.060;2023-05-15T12:02:49;100030.87;;;24.41;45.98
76868;BME280;66168;45.478;11.060;2023-05-15T12:05:16;100029.48;;;24.15;46.48
76868;BME280;66168;45.478;11.060;2023-05-15T12:07:43;100028.99;;;24.14;46.87
76868;BME280;66168;45.478;11.060;2023-05-15T12:10:11;100029.91;;;24.17;47.10
76868;BME280;66168;45.478;11.060;2023-05-15T12:12:43;100027.75;;;24.15;48.28
76868;BME280;66168;45.478;11.060;2023-05-15T12:15:15;100015.25;;;24.50;47.71
76868;BME280;66168;45.478;11.060;2023-05-15T12:17:45;100005.29;;;24.68;47.26
76868;BME280;66168;45.478;11.060;2023-05-15T12:20:17;100001.64;;;24.75;46.99
76868;BME280;66168;45.478;11.060;2023-05-15T12:22:44;100005.19;;;24.90;46.13
76868;BME280;66168;45.478;11.060;2023-05-15T12:25:13;100000.14;;;24.84;45.99
76868;BME280;66168;45.478;11.060;2023-05-15T12:27:40;99993.06;;;24.81;46.51
76868;BME280;66168;45.478;11.060;2023-05-15T12:30:09;99993.28;;;24.82;46.19
76868;BME280;66168;45.478;11.060;2023-05-15T12:32:37;99987.20;;;24.94;46.12
76868;BME280;66168;45.478;11.060;2023-05-15T12:35:05;99983.23;;;25.06;45.78
76868;BME280;66168;45.478;11.060;2023-05-15T12:37:34;99978.61;;;25.11;46.11
76868;BME280;66168;45.478;11.060;2023-05-15T12:40:03;99972.50;;;25.32;46.13
76868;BME280;66168;45.478;11.060;2023-05-15T12:42:39;99973.42;;;25.58;46.46
76868;BME280;66168;45.478;11.060;2023-05-15T12:45:14;99969.38;;;25.78;45.67
76868;BME280;66168;45.478;11.060;2023-05-15T12:47:43;99973.08;;;25.70;44.66
76868;BME280;66168;45.478;11.060;2023-05-15T12:50:12;99980.84;;;25.38;44.10
76868;BME280;66168;45.478;11.060;2023-05-15T12:52:45;99970.66;;;25.15;45.08
76868;BME280;66168;45.478;11.060;2023-05-15T12:55:16;99961.44;;;25.34;44.87
76868;BME280;66168;45.478;11.060;2023-05-15T12:57:43;99962.38;;;25.48;44.93
76868;BME280;66168;45.478;11.060;2023-05-15T13:00:11;99964.65;;;25.47;44.76
76868;BME280;66168;45.478;11.060;2023-05-15T13:02:42;99967.94;;;25.40;45.16
76868;BME280;66168;45.478;11.060;2023-05-15T13:05:10;99968.70;;;25.21;45.01
76868;BME280;66168;45.478;11.060;2023-05-15T13:07:41;99967.59;;;25.13;45.08